Time;durP1;ratioP1;P1;durP2;ratioP2;P2;SDS_P1;SDS_P2;PMS_P1;PMS_P2;Temp;Humidity;BMP_temperature;BMP_pressure;BME280_temperature;BME280_humidity;BME280_pressure;Samples;Min_cycle;Max_cycle;Signal;HPM_P1;HPM_P2
2021/10/26 00:02:53;;;;;;;22.23;6.38;;;15.70;59.10;;;;;;6198737;28;20052;-74
2021/10/26 00:05:54;;;;;;;20.42;7.18;;;15.70;58.60;;;;;;6224968;28;20038;-74
2021/10/26 00:08:56;;;;;;;15.48;6.32;;;15.70;58.60;;;;;;6228021;28;20352;-74
2021/10/26 00:11:58;;;;;;;21.17;6.90;;;15.70;58.70;;;;;;6227854;28;20065;-74
2021/10/26 00:14:59;;;;;;;14.10;6.72;;;15.60;58.60;;;;;;6227592;28;20049;-74
2021/10/26 00:18:00;;;;;;;25.50;5.97;;;15.60;58.80;;;;;;6211650;28;20096;-73
2021/10/26 00:21:01;;;;;;;12.60;6.10;;;15.60;58.90;;;;;;6227577;28;20038;-73
2021/10/26 00:24:02;;;;;;;15.05;5.82;;;15.50;59.10;;;;;;6221077;28;20096;-73
2021/10/26 00:27:03;;;;;;;16.50;5.95;;;15.40;59.30;;;;;;6228139;28;20053;-74
2021/10/26 00:30:06;;;;;;;21.30;6.30;;;15.40;59.50;;;;;;6225758;28;20038;-73
2021/10/26 00:33:07;;;;;;;12.98;5.65;;;15.40;59.50;;;;;;6244262;28;20200;-74
2021/10/26 00:36:09;;;;;;;14.52;6.63;;;15.40;59.50;;;;;;6227588;28;20038;-74
2021/10/26 00:39:11;;;;;;;14.13;6.70;;;15.40;59.50;;;;;;6223593;28;20064;-73
2021/10/26 00:42:12;;;;;;;18.58;5.90;;;15.40;59.50;;;;;;6227355;28;20095;-73
2021/10/26 00:45:13;;;;;;;12.05;5.95;;;15.40;59.50;;;;;;6226663;28;20073;-73
2021/10/26 00:48:14;;;;;;;12.45;5.30;;;15.40;59.50;;;;;;6226613;28;20113;-73
2021/10/26 00:51:17;;;;;;;16.58;5.40;;;15.40;59.50;;;;;;6227340;28;20053;-74
2021/10/26 00:54:18;;;;;;;13.43;5.03;;;15.30;59.80;;;;;;6227066;28;20042;-74
2021/10/26 00:57:28;;;;;;;12.18;5.75;;;15.40;59.70;;;;;;6226747;28;20490;-73
2021/10/26 01:00:33;;;;;;;11.20;5.68;;;15.30;59.70;;;;;;6226931;28;20117;-74
2021/10/26 01:03:39;;;;;;;9.95;5.47;;;15.30;59.70;;;;;;6228528;28;20046;-73
2021/10/26 01:06:40;;;;;;;14.48;5.78;;;15.20;59.50;;;;;;6211592;28;20049;-74
2021/10/26 01:09:43;;;;;;;14.30;5.05;;;15.20;59.40;;;;;;6226413;28;20132;-74
2021/10/26 01:12:45;;;;;;;18.42;6.20;;;15.20;59.40;;;;;;6242495;28;20077;-74
2021/10/26 01:15:47;;;;;;;15.23;6.40;;;15.20;59.40;;;;;;6242664;28;20067;-74
2021/10/26 01:19:08;;;;;;;17.25;5.65;;;15.20;59.40;;;;;;6211521;28;20026;-74
2021/10/26 01:22:09;;;;;;;13.13;5.60;;;15.10;59.40;;;;;;6226242;28;20478;-74
2021/10/26 01:25:13;;;;;;;12.32;5.85;;;15.10;59.50;;;;;;6226478;28;20414;-74
2021/10/26 01:28:20;;;;;;;11.02;5.55;;;15.10;59.50;;;;;;6221865;28;20026;-74
2021/10/26 01:31:21;;;;;;;12.85;5.88;;;15.00;59.60;;;;;;6211063;28;20026;-74
2021/10/26 01:34:31;;;;;;;12.25;4.82;;;15.00;59.60;;;;;;6204432;28;20026;-72
2021/10/26 01:37:32;;;;;;;9.75;5.03;;;15.00;59.70;;;;;;6223996;28;20049;-74
2021/10/26 01:40:34;;;;;;;14.07;5.68;;;15.00;59.80;;;;;;6225784;28;20120;-73
2021/10/26 01:43:35;;;;;;;15.07;5.97;;;15.00;59.70;;;;;;6224324;28;20046;-73
2021/10/26 01:46:36;;;;;;;12.38;5.72;;;14.90;59.70;;;;;;6242655;28;20092;-73
2021/10/26 01:49:36;;;;;;;12.90;6.13;;;14.90;59.70;;;;;;6241082;28;20037;-73
2021/10/26 01:52:38;;;;;;;12.77;6.03;;;14.90;59.80;;;;;;6207225;28;20034;-73
2021/10/26 01:55:39;;;;;;;10.75;5.60;;;14.90;59.90;;;;;;6227602;28;20092;-73
2021/10/26 01:58:40;;;;;;;12.32;5.18;;;14.80;59.80;;;;;;6222944;28;20057;-73
2021/10/26 02:01:49;;;;;;;8.55;5.10;;;14.90;59.90;;;;;;6226958;28;20092;-73
2021/10/26 02:05:12;;;;;;;10.50;5.75;;;14.80;59.70;;;;;;6212863;28;20041;-74
2021/10/26 02:08:13;;;;;;;12.35;5.15;;;14.80;59.60;;;;;;6217399;28;20026;-74
2021/10/26 02:11:14;;;;;;;15.05;6.00;;;14.80;59.60;;;;;;6209789;28;20379;-74
2021/10/26 02:14:16;;;;;;;14.30;5.43;;;14.80;59.60;;;;;;6224730;28;20026;-74
2021/10/26 02:17:17;;;;;;;12.98;5.72;;;14.80;59.70;;;;;;6225465;28;20459;-74
2021/10/26 02:20:18;;;;;;;13.20;5.38;;;14.80;59.70;;;;;;6242791;28;20130;-74
2021/10/26 02:23:19;;;;;;;16.58;5.88;;;14.80;59.80;;;;;;6223510;28;20037;-74
2021/10/26 02:26:20;;;;;;;14.02;4.90;;;14.80;60.50;;;;;;6225925;28;20343;-74
2021/10/26 02:29:22;;;;;;;9.02;4.55;;;14.80;59.70;;;;;;6218437;28;20034;-74
2021/10/26 02:32:27;;;;;;;11.48;4.43;;;14.80;59.80;;;;;;6208414;28;20026;-74
2021/10/26 02:35:28;;;;;;;9.93;4.53;;;14.70;59.70;;;;;;6225844;28;20037;-74
2021/10/26 02:38:29;;;;;;;8.98;4.90;;;14.70;59.60;;;;;;6223522;28;20459;-74
2021/10/26 02:41:31;;;;;;;14.40;5.30;;;14.70;59.70;;;;;;6225695;28;20049;-74
2021/10/26 02:44:33;;;;;;;10.52;5.20;;;14.70;59.70;;;;;;6226289;28;20033;-74
2021/10/26 02:47:37;;;;;;;8.75;4.38;;;14.60;59.70;;;;;;6240475;28;20033;-74
2021/10/26 02:50:39;;;;;;;9.38;5.05;;;14.60;59.80;;;;;;6220144;28;20411;-74
2021/10/26 02:53:39;;;;;;;13.93;4.38;;;14.60;59.80;;;;;;6224181;28;20053;-74
2021/10/26 02:56:45;;;;;;;12.30;4.47;;;14.60;59.70;;;;;;6226090;28;20049;-73
2021/10/26 02:59:46;;;;;;;9.82;3.95;;;14.50;59.70;;;;;;6226460;28;20034;-74
2021/10/26 03:02:48;;;;;;;8.40;4.10;;;14.50;59.70;;;;;;6224101;28;20127;-75
2021/10/26 03:05:49;;;;;;;12.45;4.80;;;14.50;59.70;;;;;;6228547;28;20052;-74
2021/10/26 03:08:50;;;;;;;9.20;4.35;;;14.40;59.70;;;;;;6226411;28;20399;-74
2021/10/26 03:12:02;;;;;;;10.23;4.82;;;14.40;59.70;;;;;;6225070;28;20053;-74
2021/10/26 03:15:05;;;;;;;12.73;5.18;;;14.50;59.70;;;;;;6242400;28;20049;-74
2021/10/26 03:18:06;;;;;;;9.40;5.07;;;14.40;59.80;;;;;;6239765;28;20049;-74
2021/10/26 03:21:08;;;;;;;16.70;5.35;;;14.40;59.80;;;;;;6225748;28;20037;-74
2021/10/26 03:24:10;;;;;;;9.77;4.78;;;14.40;59.90;;;;;;6223361;28;20096;-73
2021/10/26 03:27:11;;;;;;;9.10;4.75;;;14.40;59.90;;;;;;6223545;28;20410;-73
2021/10/26 03:30:14;;;;;;;14.65;4.35;;;14.40;60.00;;;;;;6225604;28;20084;-73
2021/10/26 03:33:15;;;;;;;11.13;4.45;;;14.30;59.90;;;;;;6217714;28;20030;-74
2021/10/26 03:36:23;;;;;;;9.90;4.40;;;14.30;59.90;;;;;;6223442;28;20415;-74
2021/10/26 03:39:23;;;;;;;9.52;4.57;;;14.30;59.90;;;;;;6207501;28;20068;-73
2021/10/26 03:42:26;;;;;;;10.05;5.03;;;14.30;59.90;;;;;;6245130;28;20045;-73
2021/10/26 03:45:27;;;;;;;9.50;4.45;;;14.20;59.90;;;;;;6208758;28;20427;-73
2021/10/26 03:48:28;;;;;;;10.23;5.10;;;14.20;60.00;;;;;;6211128;28;20412;-74
2021/10/26 03:51:30;;;;;;;17.05;5.88;;;14.20;60.10;;;;;;6228716;28;20034;-73
2021/10/26 03:54:32;;;;;;;11.40;4.65;;;14.20;61.10;;;;;;6229420;28;20041;-73
2021/10/26 03:57:34;;;;;;;8.82;4.38;;;14.20;60.30;;;;;;6226043;28;20489;-76
2021/10/26 04:00:36;;;;;;;9.85;4.68;;;14.20;60.30;;;;;;6226477;28;20603;-74
2021/10/26 04:04:12;;;;;;;12.15;5.68;;;14.20;60.30;;;;;;6226245;28;20395;-73
2021/10/26 04:07:13;;;;;;;10.43;5.38;;;14.30;60.50;;;;;;6217523;28;20422;-73
2021/10/26 04:10:18;;;;;;;9.77;4.85;;;14.20;60.60;;;;;;6224052;28;20030;-74
2021/10/26 04:13:20;;;;;;;13.00;4.80;;;14.20;60.80;;;;;;6209402;28;20433;-73
2021/10/26 04:16:22;;;;;;;10.00;4.97;;;14.30;60.80;;;;;;6203536;28;20570;-74
2021/10/26 04:19:23;;;;;;;8.50;4.88;;;14.30;60.90;;;;;;6210579;28;20033;-73
2021/10/26 04:22:25;;;;;;;14.70;5.05;;;14.20;60.90;;;;;;6194666;28;20034;-75
2021/10/26 04:25:26;;;;;;;9.90;5.13;;;14.30;61.00;;;;;;6227265;28;20041;-73
2021/10/26 04:28:27;;;;;;;9.50;4.68;;;14.30;61.00;;;;;;6208932;28;20133;-73
2021/10/26 04:31:29;;;;;;;10.00;5.57;;;14.30;61.00;;;;;;6212165;28;20109;-72
2021/10/26 04:34:33;;;;;;;18.00;4.95;;;14.40;61.00;;;;;;6210798;28;20053;-74
2021/10/26 04:37:35;;;;;;;17.05;5.53;;;14.40;60.90;;;;;;6210045;28;20463;-74
2021/10/26 04:40:36;;;;;;;10.98;4.88;;;14.40;60.80;;;;;;6228579;28;20042;-75
2021/10/26 04:43:45;;;;;;;11.93;5.05;;;14.40;60.90;;;;;;6225557;28;20475;-74
2021/10/26 04:46:48;;;;;;;11.68;5.50;;;14.40;60.90;;;;;;6228143;28;20038;-75
2021/10/26 04:49:51;;;;;;;12.15;4.72;;;14.40;60.90;;;;;;6211766;28;20073;-73
2021/10/26 04:52:52;;;;;;;10.38;5.40;;;14.40;61.00;;;;;;6241086;28;20463;-74
2021/10/26 04:55:53;;;;;;;11.95;5.22;;;14.40;60.90;;;;;;6228285;28;20034;-73
2021/10/26 04:58:54;;;;;;;10.40;5.03;;;14.40;60.90;;;;;;6209551;28;20121;-74
2021/10/26 05:01:55;;;;;;;9.65;4.95;;;14.50;60.90;;;;;;6210786;28;20374;-73
2021/10/26 05:04:57;;;;;;;14.27;5.32;;;14.50;60.80;;;;;;6226427;28;20463;-73
2021/10/26 05:07:58;;;;;;;11.18;5.78;;;14.50;60.80;;;;;;6231270;28;20029;-73
2021/10/26 05:11:00;;;;;;;11.70;5.03;;;14.50;60.90;;;;;;6209547;28;20119;-74
2021/10/26 05:14:02;;;;;;;14.48;5.53;;;14.40;61.80;;;;;;6241839;28;20399;-74
2021/10/26 05:17:23;;;;;;;9.95;5.18;;;14.40;61.10;;;;;;6225813;28;20382;-74
2021/10/26 05:20:45;;;;;;;12.60;5.10;;;14.40;61.20;;;;;;6226903;28;20089;-74
2021/10/26 05:24:26;;;;;;;10.63;4.68;;;14.40;61.20;;;;;;6170255;28;20171;-74
2021/10/26 05:27:37;;;;;;;10.52;5.97;;;14.40;61.30;;;;;;6173358;28;20460;-74
2021/10/26 05:30:39;;;;;;;11.32;5.05;;;14.40;61.40;;;;;;6171973;28;20097;-75
2021/10/26 05:33:41;;;;;;;10.43;5.32;;;14.40;61.60;;;;;;6177698;28;20471;-75
2021/10/26 05:36:42;;;;;;;20.40;5.80;;;14.40;61.70;;;;;;6197746;28;20039;-73
2021/10/26 05:39:44;;;;;;;16.73;6.60;;;14.30;61.80;;;;;;6152589;28;20109;-73
2021/10/26 05:42:46;;;;;;;10.80;5.45;;;14.30;61.90;;;;;;6182378;28;20105;-74
2021/10/26 05:45:49;;;;;;;10.48;5.45;;;14.40;61.90;;;;;;6164636;28;20038;-73
2021/10/26 05:48:49;;;;;;;11.40;5.47;;;14.40;61.70;;;;;;6164372;28;20034;-72
2021/10/26 05:51:51;;;;;;;12.15;5.68;;;14.40;61.60;;;;;;6176742;28;20456;-72
2021/10/26 05:54:52;;;;;;;12.35;6.32;;;14.40;61.70;;;;;;6196693;28;20068;-71
2021/10/26 05:57:54;;;;;;;14.63;5.07;;;14.40;61.70;;;;;;6220887;28;20040;-72
2021/10/26 06:00:55;;;;;;;12.77;6.05;;;14.40;61.80;;;;;;6222454;28;20042;-71
2021/10/26 06:03:56;;;;;;;12.48;5.63;;;14.50;61.80;;;;;;6220940;28;20459;-72
2021/10/26 06:06:57;;;;;;;15.70;5.20;;;14.50;61.70;;;;;;6206418;28;20461;-71
2021/10/26 06:09:58;;;;;;;14.52;5.50;;;14.50;61.60;;;;;;6219343;28;20034;-73
2021/10/26 06:13:06;;;;;;;11.38;5.40;;;14.50;61.30;;;;;;6204440;28;20064;-74
2021/10/26 06:16:07;;;;;;;14.30;5.55;;;14.50;60.90;;;;;;6217379;28;20038;-73
2021/10/26 06:19:10;;;;;;;19.77;6.15;;;14.50;60.70;;;;;;6229160;28;20050;-76
2021/10/26 06:22:13;;;;;;;9.63;5.47;;;14.50;60.50;;;;;;6220730;28;20049;-74
2021/10/26 06:25:14;;;;;;;20.85;5.97;;;14.50;60.40;;;;;;6218403;28;20029;-78
2021/10/26 06:28:41;;;;;;;16.63;5.28;;;14.60;60.40;;;;;;6223599;28;20058;-73
2021/10/26 06:31:42;;;;;;;18.48;5.97;;;14.60;60.10;;;;;;6205035;28;20033;-73
2021/10/26 06:34:43;;;;;;;13.93;5.55;;;14.50;60.10;;;;;;6197556;28;20057;-74
2021/10/26 06:37:44;;;;;;;12.40;6.05;;;14.50;60.20;;;;;;6201572;28;20041;-73
2021/10/26 06:40:45;;;;;;;13.15;5.57;;;14.50;60.30;;;;;;6218474;28;20062;-74
2021/10/26 06:44:12;;;;;;;15.95;5.85;;;14.50;60.40;;;;;;6218156;28;20458;-74
2021/10/26 06:47:36;;;;;;;17.67;5.78;;;14.50;60.50;;;;;;6188237;28;20038;-74
2021/10/26 06:51:06;;;;;;;25.30;6.85;;;14.40;60.60;;;;;;6191568;28;20443;-73
2021/10/26 06:54:26;;;;;;;15.82;6.30;;;14.40;60.80;;;;;;6178635;28;20046;-73
2021/10/26 06:57:48;;;;;;;14.38;5.90;;;14.40;60.90;;;;;;6192670;28;20074;-73
2021/10/26 07:01:18;;;;;;;12.57;5.55;;;14.40;61.00;;;;;;6175993;28;20042;-73
2021/10/26 07:04:33;;;;;;;10.82;5.72;;;14.50;60.90;;;;;;6179599;28;20046;-70
2021/10/26 07:08:04;;;;;;;19.85;6.43;;;14.50;60.80;;;;;;6180543;28;20034;-74
2021/10/26 07:11:05;;;;;;;17.48;6.68;;;14.60;60.80;;;;;;6168785;28;20546;-73
2021/10/26 07:14:06;;;;;;;12.55;6.70;;;14.60;60.70;;;;;;6190033;28;20113;-72
2021/10/26 07:17:08;;;;;;;14.65;6.15;;;14.60;60.50;;;;;;6183264;28;20125;-73
2021/10/26 07:20:13;;;;;;;14.93;6.55;;;14.70;60.50;;;;;;6198801;28;20463;-73
2021/10/26 07:23:34;;;;;;;15.73;6.53;;;14.70;60.40;;;;;;6203339;28;20045;-73
2021/10/26 07:27:11;;;;;;;18.48;6.43;;;14.80;60.30;;;;;;6208879;28;20052;-73
2021/10/26 07:30:12;;;;;;;15.90;6.53;;;14.90;60.20;;;;;;6204628;28;20029;-74
2021/10/26 07:33:18;;;;;;;20.10;6.90;;;14.80;60.10;;;;;;6210669;28;20195;-73
2021/10/26 07:36:24;;;;;;;19.65;6.38;;;14.90;60.10;;;;;;6220923;28;20041;-74
2021/10/26 07:42:26;;;;;;;17.65;6.13;;;15.00;60.00;;;;;;6221175;28;20053;-73
2021/10/26 07:45:42;;;;;;;22.42;7.10;;;15.10;60.00;;;;;;6194541;28;20030;-73
2021/10/26 07:48:44;;;;;;;17.33;7.20;;;15.20;59.90;;;;;;6203645;28;20471;-73
2021/10/26 07:51:45;;;;;;;15.32;6.10;;;15.20;59.80;;;;;;6204821;28;20096;-73
2021/10/26 07:54:52;;;;;;;17.48;6.75;;;15.30;59.70;;;;;;6220725;28;20038;-76
2021/10/26 07:57:54;;;;;;;20.13;7.10;;;15.30;59.60;;;;;;6218873;28;20033;-73
2021/10/26 08:00:57;;;;;;;16.73;6.65;;;15.30;59.50;;;;;;6216445;28;20043;-73
2021/10/26 08:04:18;;;;;;;16.33;6.88;;;15.40;59.50;;;;;;6221265;28;20038;-74
2021/10/26 08:07:32;;;;;;;14.00;5.90;;;15.40;59.50;;;;;;6204254;28;20598;-73
2021/10/26 08:10:33;;;;;;;15.68;7.13;;;15.40;59.50;;;;;;6221495;28;20034;-74
2021/10/26 08:13:35;;;;;;;20.42;7.05;;;15.50;59.30;;;;;;6221385;28;20045;-74
2021/10/26 08:16:36;;;;;;;18.35;7.55;;;15.60;59.20;;;;;;6233225;28;20048;-73
2021/10/26 08:19:43;;;;;;;27.60;7.40;;;15.60;58.90;;;;;;6219694;28;20042;-75
2021/10/26 08:22:45;;;;;;;16.65;7.15;;;15.70;58.90;;;;;;6219328;28;20065;-74
2021/10/26 08:25:50;;;;;;;15.80;7.45;;;15.80;58.70;;;;;;6217540;28;20104;-74
2021/10/26 08:29:00;;;;;;;17.20;7.35;;;15.80;58.50;;;;;;6219349;28;20044;-74
2021/10/26 08:35:23;;;;;;;17.48;6.75;;;16.00;58.20;;;;;;6221765;28;20096;-74
2021/10/26 08:38:24;;;;;;;17.60;7.15;;;16.10;58.10;;;;;;6220986;28;20128;-73
2021/10/26 08:41:38;;;;;;;21.75;7.10;;;16.20;58.00;;;;;;6206716;28;20061;-75
2021/10/26 08:44:40;;;;;;;17.25;7.85;;;16.30;57.80;;;;;;6221135;28;20045;-74
2021/10/26 08:47:44;;;;;;;17.17;7.18;;;16.40;57.70;;;;;;6223032;28;20065;-73
2021/10/26 08:51:04;;;;;;;24.10;8.65;;;16.50;57.40;;;;;;6222032;28;20038;-75
2021/10/26 08:54:13;;;;;;;24.45;9.68;;;16.60;56.90;;;;;;6220793;28;20034;-74
2021/10/26 08:57:17;;;;;;;16.40;7.28;;;16.70;56.70;;;;;;6213057;28;20057;-73
2021/10/26 09:00:18;;;;;;;18.67;6.38;;;16.70;56.60;;;;;;6237379;28;20048;-74
2021/10/26 09:03:21;;;;;;;14.90;6.28;;;16.80;56.40;;;;;;6215152;28;20529;-73
2021/10/26 09:06:31;;;;;;;14.40;5.53;;;16.80;56.30;;;;;;6220867;28;20053;-74
2021/10/26 09:09:35;;;;;;;19.70;7.05;;;16.90;56.10;;;;;;6221090;28;20030;-73
2021/10/26 09:16:59;;;;;;;20.13;8.32;;;17.00;55.30;;;;;;6208441;28;20042;-74
2021/10/26 09:20:28;;;;;;;16.30;6.45;;;17.10;55.10;;;;;;6222747;28;20049;-73
2021/10/26 09:23:30;;;;;;;11.50;5.25;;;17.10;55.00;;;;;;6237683;28;20411;-73
2021/10/26 09:27:17;;;;;;;11.50;4.80;;;17.20;55.00;;;;;;6220308;28;20033;-73
2021/10/26 09:30:19;;;;;;;35.78;14.20;;;17.20;54.70;;;;;;6179947;28;20038;-74
2021/10/26 09:33:56;;;;;;;18.13;7.07;;;17.30;54.20;;;;;;6180155;28;20053;-73
2021/10/26 09:36:57;;;;;;;14.20;5.22;;;17.30;54.00;;;;;;6083995;29;20103;-74
2021/10/26 09:40:02;;;;;;;19.05;7.57;;;17.40;53.90;;;;;;6097169;29;20486;-73
2021/10/26 09:43:08;;;;;;;14.80;6.18;;;17.40;53.90;;;;;;6097179;29;20044;-74
2021/10/26 09:46:09;;;;;;;15.95;5.43;;;17.50;53.80;;;;;;6075833;29;20037;-74
2021/10/26 09:49:23;;;;;;;27.80;9.45;;;17.70;53.40;;;;;;6094931;29;20040;-74
2021/10/26 09:52:26;;;;;;;17.27;6.15;;;17.70;53.20;;;;;;6078807;29;20370;-74
2021/10/26 09:55:29;;;;;;;13.35;5.45;;;17.80;52.90;;;;;;6090072;29;20036;-74
2021/10/26 09:58:31;;;;;;;18.23;6.97;;;17.90;52.70;;;;;;6083892;29;20119;-74
2021/10/26 10:01:52;;;;;;;10.70;4.70;;;18.10;52.40;;;;;;6140476;28;20045;-73
2021/10/26 10:04:55;;;;;;;13.13;5.85;;;18.50;51.40;;;;;;6124178;28;20194;-74
2021/10/26 10:08:16;;;;;;;10.38;4.70;;;18.70;50.70;;;;;;6143185;28;20043;-75
2021/10/26 10:11:20;;;;;;;11.27;4.93;;;18.90;50.50;;;;;;6146921;28;20039;-75
2021/10/26 10:14:21;;;;;;;13.02;5.70;;;19.20;50.10;;;;;;6221637;28;20045;-74
2021/10/26 10:17:23;;;;;;;10.48;5.03;;;19.40;49.70;;;;;;6225184;28;20062;-75
2021/10/26 10:20:25;;;;;;;13.52;5.80;;;19.60;49.40;;;;;;6224389;28;20105;-74
2021/10/26 10:23:26;;;;;;;20.20;5.82;;;19.80;49.00;;;;;;6232200;28;20045;-74
2021/10/26 10:26:30;;;;;;;16.17;5.68;;;20.00;48.40;;;;;;6228137;28;20068;-75
2021/10/26 10:29:32;;;;;;;13.27;5.70;;;20.10;47.90;;;;;;6237282;28;20113;-76
2021/10/26 10:32:35;;;;;;;11.63;5.00;;;20.30;47.80;;;;;;6221934;28;20068;-75
2021/10/26 10:35:38;;;;;;;13.32;5.45;;;20.50;47.60;;;;;;6219936;28;20038;-74
2021/10/26 10:38:40;;;;;;;12.07;4.97;;;20.70;47.60;;;;;;6213945;28;20056;-74
2021/10/26 10:41:42;;;;;;;10.43;5.38;;;20.90;47.20;;;;;;6219786;28;20038;-75
2021/10/26 10:44:46;;;;;;;12.18;5.50;;;21.10;47.00;;;;;;6219499;28;20200;-73
2021/10/26 10:47:47;;;;;;;9.95;5.00;;;21.40;46.50;;;;;;6220069;28;20108;-75
2021/10/26 10:51:12;;;;;;;10.70;4.90;;;21.60;46.30;;;;;;6217127;28;20037;-74
2021/10/26 10:54:57;;;;;;;12.73;5.32;;;21.70;45.90;;;;;;6218750;28;20361;-75
2021/10/26 10:58:43;;;;;;;10.18;4.88;;;21.90;45.60;;;;;;6219158;28;20348;-76
2021/10/26 11:01:46;;;;;;;10.77;5.00;;;22.20;45.10;;;;;;6217296;28;20095;-75
2021/10/26 11:04:47;;;;;;;13.45;4.10;;;22.60;44.40;;;;;;6201459;28;20049;-74
2021/10/26 11:07:49;;;;;;;13.27;4.78;;;23.00;43.20;;;;;;6218691;28;20439;-76
2021/10/26 11:10:51;;;;;;;12.63;5.30;;;23.30;42.60;;;;;;6218235;28;20542;-76
2021/10/26 11:14:19;;;;;;;13.25;3.45;;;23.70;42.00;;;;;;6201875;28;20029;-74
2021/10/26 11:17:35;;;;;;;8.93;2.65;;;24.10;41.60;;;;;;6217893;28;20084;-75
2021/10/26 11:20:37;;;;;;;8.32;3.05;;;24.50;40.90;;;;;;6218295;28;20038;-74
2021/10/26 11:23:44;;;;;;;6.10;3.78;;;24.70;40.30;;;;;;6218234;28;20073;-76
2021/10/26 11:26:45;;;;;;;9.95;3.92;;;25.00;39.20;;;;;;6202430;28;20513;-75
2021/10/26 11:29:46;;;;;;;10.57;4.32;;;25.30;38.70;;;;;;6218498;28;20041;-76
2021/10/26 11:32:46;;;;;;;13.55;4.43;;;25.60;37.90;;;;;;6217006;28;20034;-74
2021/10/26 11:35:55;;;;;;;10.98;3.90;;;25.90;37.20;;;;;;6215596;28;20479;-74
2021/10/26 11:38:59;;;;;;;14.82;5.00;;;26.20;36.40;;;;;;6217786;28;20042;-75
2021/10/26 11:42:00;;;;;;;9.88;3.53;;;26.60;35.80;;;;;;6219060;28;20034;-74
2021/10/26 11:45:08;;;;;;;6.35;3.80;;;27.10;35.10;;;;;;6219025;28;20060;-75
2021/10/26 11:48:09;;;;;;;10.77;4.00;;;27.50;34.50;;;;;;6216822;28;20045;-75
2021/10/26 11:51:34;;;;;;;8.18;3.55;;;27.70;33.50;;;;;;6218203;28;20033;-75
2021/10/26 11:54:39;;;;;;;11.95;3.20;;;27.60;33.30;;;;;;6197394;28;20497;-75
2021/10/26 11:57:40;;;;;;;6.38;3.53;;;27.50;33.40;;;;;;6220688;28;20041;-75
2021/10/26 12:00:58;;;;;;;5.68;2.70;;;27.00;33.70;;;;;;6203713;28;20056;-75
2021/10/26 12:04:01;;;;;;;6.38;2.85;;;26.60;34.70;;;;;;6221295;28;20474;-75
2021/10/26 12:07:07;;;;;;;4.45;2.28;;;26.20;35.20;;;;;;6223899;28;20096;-74
2021/10/26 12:10:09;;;;;;;5.15;2.40;;;26.10;35.50;;;;;;6207241;28;20465;-75
2021/10/26 12:13:12;;;;;;;5.63;2.63;;;25.90;35.70;;;;;;6223623;28;20518;-75
2021/10/26 12:16:15;;;;;;;6.20;2.88;;;25.60;36.10;;;;;;6224040;28;20056;-75
2021/10/26 12:19:30;;;;;;;7.50;2.63;;;25.50;36.20;;;;;;6223456;28;20041;-76
2021/10/26 12:22:59;;;;;;;7.40;2.90;;;25.20;36.80;;;;;;6202486;28;20041;-75
2021/10/26 12:26:09;;;;;;;6.90;2.22;;;24.90;37.30;;;;;;6215841;28;20088;-75
2021/10/26 12:29:10;;;;;;;5.38;2.08;;;24.80;37.80;;;;;;6223516;28;20042;-75
2021/10/26 12:32:12;;;;;;;4.40;1.95;;;24.30;38.40;;;;;;6223750;28;20041;-74
2021/10/26 12:35:13;;;;;;;5.55;2.25;;;23.90;39.00;;;;;;6223378;28;20455;-76
2021/10/26 12:38:37;;;;;;;3.85;2.03;;;23.50;39.70;;;;;;6223498;28;20034;-74
2021/10/26 12:41:40;;;;;;;3.22;1.70;;;23.20;40.50;;;;;;6223158;28;20038;-74
2021/10/26 12:44:54;;;;;;;4.38;1.85;;;23.00;40.90;;;;;;6224329;28;20034;-75
2021/10/26 12:48:06;;;;;;;9.45;2.10;;;22.90;41.30;;;;;;6223008;28;20046;-74
2021/10/26 12:51:09;;;;;;;5.57;1.80;;;22.70;41.70;;;;;;6222579;28;20091;-76
2021/10/26 12:54:19;;;;;;;3.90;1.60;;;22.70;41.90;;;;;;6238968;28;20034;-75
2021/10/26 12:57:37;;;;;;;3.22;1.98;;;22.60;42.10;;;;;;6220396;28;20109;-75
2021/10/26 13:00:47;;;;;;;3.00;1.55;;;22.50;42.30;;;;;;6218843;28;20082;-75
2021/10/26 13:04:15;;;;;;;2.40;1.50;;;22.30;42.50;;;;;;6221199;28;20037;-74
2021/10/26 13:07:25;;;;;;;6.18;1.58;;;22.20;42.70;;;;;;6219888;28;20034;-74
2021/10/26 13:10:26;;;;;;;6.22;1.75;;;22.20;43.00;;;;;;6223978;28;20038;-75
2021/10/26 13:13:27;;;;;;;10.50;1.83;;;22.10;43.00;;;;;;6217429;28;20483;-75
2021/10/26 13:16:34;;;;;;;2.97;1.35;;;22.00;43.10;;;;;;6217458;28;20537;-74
2021/10/26 13:19:34;;;;;;;3.20;1.20;;;22.00;43.20;;;;;;6221065;28;20375;-73
2021/10/26 13:22:37;;;;;;;5.18;1.00;;;21.90;43.20;;;;;;6222413;28;20034;-75
2021/10/26 13:25:47;;;;;;;4.95;1.50;;;21.80;43.30;;;;;;6220516;28;20416;-75
2021/10/26 13:28:48;;;;;;;3.80;1.35;;;21.60;43.50;;;;;;6220952;28;20327;-74
2021/10/26 13:31:49;;;;;;;7.80;1.58;;;21.60;43.60;;;;;;6219782;28;20045;-74
2021/10/26 13:34:52;;;;;;;3.03;1.55;;;21.50;43.80;;;;;;6218435;28;20041;-74
2021/10/26 13:37:53;;;;;;;6.55;1.58;;;21.40;44.00;;;;;;6221226;28;20328;-74
2021/10/26 13:40:55;;;;;;;1.48;1.20;;;21.40;44.10;;;;;;6220911;28;20041;-74
2021/10/26 13:43:56;;;;;;;6.22;1.52;;;21.40;44.30;;;;;;6220631;28;20041;-73
2021/10/26 13:46:57;;;;;;;2.65;0.90;;;21.40;44.30;;;;;;6221050;28;20113;-73
2021/10/26 13:49:58;;;;;;;3.58;1.98;;;21.50;44.30;;;;;;6220296;28;20137;-73
2021/10/26 13:52:59;;;;;;;2.25;1.33;;;21.50;44.40;;;;;;6221903;28;20456;-74
2021/10/26 13:56:00;;;;;;;3.42;1.25;;;21.60;44.40;;;;;;6220247;28;20034;-74
2021/10/26 13:59:04;;;;;;;3.50;1.10;;;21.70;44.10;;;;;;6211843;28;20034;-74
2021/10/26 14:02:06;;;;;;;4.57;1.30;;;21.60;44.00;;;;;;6221019;28;20041;-75
2021/10/26 14:05:08;;;;;;;2.20;1.15;;;21.60;44.10;;;;;;6220943;28;20042;-75
2021/10/26 14:08:10;;;;;;;3.65;1.13;;;21.60;44.20;;;;;;6202499;28;20034;-75
2021/10/26 14:11:11;;;;;;;5.30;1.42;;;21.60;44.20;;;;;;6220238;28;20431;-75
2021/10/26 14:14:12;;;;;;;3.78;1.45;;;21.50;44.90;;;;;;6219584;28;20042;-74
2021/10/26 14:17:13;;;;;;;2.40;1.30;;;21.50;44.50;;;;;;6235022;28;20035;-73
2021/10/26 14:20:23;;;;;;;4.38;1.63;;;21.50;44.50;;;;;;6235489;28;20095;-73
2021/10/26 14:23:26;;;;;;;2.13;1.13;;;21.50;44.60;;;;;;6198128;28;20115;-73
2021/10/26 14:26:27;;;;;;;3.95;1.27;;;21.40;44.60;;;;;;6219155;28;20490;-73
2021/10/26 14:29:29;;;;;;;5.85;1.17;;;21.40;44.70;;;;;;6200235;28;20366;-74
2021/10/26 14:32:30;;;;;;;3.50;1.48;;;21.40;44.80;;;;;;6217639;28;20093;-73
2021/10/26 14:35:36;;;;;;;4.82;1.25;;;21.30;45.00;;;;;;6220735;28;20044;-74
2021/10/26 14:38:52;;;;;;;5.57;1.63;;;21.20;45.10;;;;;;6221688;28;20041;-73
2021/10/26 14:55:21;;;;;;;2.13;1.05;;;21.10;46.20;;;;;;6221930;28;20041;-73
2021/10/26 14:58:24;;;;;;;2.63;1.30;;;21.00;46.50;;;;;;6222838;28;20033;-75
2021/10/26 15:01:24;;;;;;;7.97;1.55;;;21.10;46.80;;;;;;6225513;28;20038;-74
2021/10/26 15:04:25;;;;;;;3.83;1.40;;;21.00;46.90;;;;;;6221726;28;20038;-74
2021/10/26 15:07:26;;;;;;;7.32;1.33;;;21.00;47.00;;;;;;6203981;28;20440;-75
2021/10/26 15:13:40;;;;;;;5.88;1.30;;;21.00;47.10;;;;;;6220725;28;20049;-75
2021/10/26 15:16:46;;;;;;;6.35;1.33;;;20.90;47.10;;;;;;6219835;28;20111;-74
2021/10/26 15:19:49;;;;;;;8.73;1.30;;;20.90;47.20;;;;;;6220541;28;20038;-73
2021/10/26 15:23:03;;;;;;;3.60;1.50;;;20.90;47.30;;;;;;6219234;28;20350;-76
2021/10/26 15:36:00;;;;;;;3.80;1.48;;;20.90;47.40;;;;;;6221582;28;20041;-74
2021/10/26 15:39:01;;;;;;;4.32;2.30;;;20.80;47.40;;;;;;6223214;28;20038;-74
2021/10/26 15:42:04;;;;;;;3.30;1.33;;;20.80;47.50;;;;;;6224362;28;20467;-75
2021/10/26 15:45:06;;;;;;;4.70;1.30;;;20.70;47.70;;;;;;6222695;28;20045;-76
2021/10/26 15:48:07;;;;;;;1.77;0.93;;;20.60;47.70;;;;;;6224577;28;20104;-75
2021/10/26 15:51:08;;;;;;;3.05;0.95;;;20.60;47.80;;;;;;6224173;28;20070;-75
2021/10/26 15:54:09;;;;;;;2.05;1.20;;;20.60;47.90;;;;;;6207036;28;20109;-74
2021/10/26 15:57:11;;;;;;;2.95;1.30;;;20.50;48.00;;;;;;6225123;28;20045;-74
2021/10/26 16:00:13;;;;;;;3.10;1.10;;;20.50;48.10;;;;;;6224635;28;20036;-75
2021/10/26 16:03:14;;;;;;;4.65;1.30;;;20.40;48.10;;;;;;6223185;28;21486;-74
2021/10/26 16:06:17;;;;;;;3.47;1.33;;;20.30;48.00;;;;;;6224519;28;20034;-74
2021/10/26 16:09:21;;;;;;;4.15;2.00;;;20.30;48.10;;;;;;6206364;28;20068;-74
2021/10/26 16:12:28;;;;;;;3.92;1.38;;;20.20;48.10;;;;;;6224107;28;20048;-75
2021/10/26 16:15:36;;;;;;;3.95;1.20;;;20.20;48.30;;;;;;6221898;28;20033;-74
2021/10/26 16:18:38;;;;;;;9.00;1.30;;;20.10;48.40;;;;;;6203716;28;20053;-74
2021/10/26 16:21:40;;;;;;;2.67;1.10;;;20.10;48.70;;;;;;6241255;28;20375;-73
2021/10/26 16:24:41;;;;;;;6.13;1.38;;;19.90;48.70;;;;;;6207927;28;20090;-74
2021/10/26 16:27:42;;;;;;;2.08;1.10;;;19.90;48.80;;;;;;6225225;28;20049;-75
2021/10/26 16:30:44;;;;;;;7.55;1.52;;;19.90;49.00;;;;;;6223576;28;20459;-73
2021/10/26 16:33:55;;;;;;;5.60;1.20;;;19.80;49.20;;;;;;6241186;28;20034;-73
2021/10/26 16:36:59;;;;;;;3.65;1.35;;;19.80;49.30;;;;;;6216214;28;20089;-73